Time;durP1;ratioP1;P1;durP2;ratioP2;P2;SDS_P1;SDS_P2;PMS_P1;PMS_P2;Temp;Humidity;BMP_temperature;BMP_pressure;BME280_temperature;BME280_humidity;BME280_pressure;Samples;Min_cycle;Max_cycle;Signal;HPM_P1;HPM_P2
2022/08/16 00:01:00;;;;;;;23.83;9.73;;;;;;;21.48;91.36;100175.60;1753448;81;27457;-55
2022/08/16 00:03:27;;;;;;;25.08;10.05;;;;;;;21.50;90.96;100172.66;1753393;81;25785;-50
2022/08/16 00:05:54;;;;;;;20.62;10.15;;;;;;;21.53;91.25;100176.30;1753411;81;26329;-54
2022/08/16 00:08:21;;;;;;;20.52;9.45;;;;;;;21.57;91.48;100175.63;1753697;81;25797;-53
2022/08/16 00:10:48;;;;;;;14.85;9.98;;;;;;;21.63;91.62;100179.95;1753628;81;25969;-55
2022/08/16 00:13:15;;;;;;;18.52;9.50;;;;;;;21.61;90.79;100183.44;1753942;81;27636;-54
2022/08/16 00:15:47;;;;;;;16.32;8.63;;;;;;;21.60;90.56;100196.81;1753471;81;25656;-54
2022/08/16 00:18:17;;;;;;;16.77;8.78;;;;;;;21.58;89.33;100223.87;1753985;81;25783;-54
2022/08/16 00:20:47;;;;;;;18.37;7.87;;;;;;;21.57;87.39;100245.96;1753488;81;26610;-53
2022/08/16 00:23:14;;;;;;;12.07;7.35;;;;;;;21.45;86.87;100258.16;1753148;81;26076;-54
2022/08/16 00:25:42;;;;;;;13.43;7.15;;;;;;;21.40;85.64;100263.44;1811774;79;27506;-53
2022/08/16 00:28:09;;;;;;;19.23;6.95;;;;;;;21.30;86.52;100262.56;1812288;79;25751;-54
2022/08/16 00:30:37;;;;;;;15.63;5.87;;;;;;;21.29;85.47;100265.52;1812104;79;25479;-54
2022/08/16 00:33:05;;;;;;;10.98;5.20;;;;;;;21.19;84.44;100265.47;1812260;77;25926;-53
2022/08/16 00:35:36;;;;;;;7.55;4.58;;;;;;;21.18;84.80;100266.53;1811952;79;25782;-54
2022/08/16 00:38:06;;;;;;;9.60;5.05;;;;;;;21.14;82.56;100268.55;1812222;79;27592;-54
2022/08/16 00:40:47;;;;;;;9.50;4.67;;;;;;;21.10;82.61;100266.24;1811667;78;25757;-53
2022/08/16 00:43:23;;;;;;;9.78;4.40;;;;;;;21.11;81.51;100277.50;1811922;77;25672;-52
2022/08/16 00:46:07;;;;;;;10.18;4.60;;;;;;;21.06;81.09;100277.83;1808112;79;26516;-54
2022/08/16 00:48:34;;;;;;;16.57;5.80;;;;;;;21.04;81.53;100279.94;1798828;79;25636;-54
2022/08/16 00:51:03;;;;;;;9.98;4.03;;;;;;;21.03;80.55;100275.52;1799947;78;28272;-55
2022/08/16 00:53:30;;;;;;;18.42;4.83;;;;;;;21.03;80.36;100269.55;1800024;79;26622;-54
2022/08/16 00:56:03;;;;;;;8.18;3.80;;;;;;;21.03;79.62;100270.05;1800341;78;25735;-53
2022/08/16 00:58:32;;;;;;;10.38;3.80;;;;;;;21.01;79.21;100263.45;1800172;78;25753;-54
2022/08/16 01:01:00;;;;;;;7.47;4.05;;;;;;;20.99;79.11;100260.08;1800349;78;25708;-54
2022/08/16 01:03:28;;;;;;;6.35;3.85;;;;;;;20.98;78.62;100257.03;1800087;79;28453;-54
2022/08/16 01:05:55;;;;;;;13.05;3.92;;;;;;;20.95;78.36;100250.11;1800236;78;25478;-52
2022/08/16 01:08:23;;;;;;;9.28;4.10;;;;;;;20.93;78.46;100245.38;1800002;79;25730;-54
2022/08/16 01:10:51;;;;;;;7.75;3.87;;;;;;;20.91;79.06;100243.94;1800283;78;26824;-54
2022/08/16 01:13:23;;;;;;;7.53;4.45;;;;;;;20.91;77.74;100240.69;1800611;79;25514;-53
2022/08/16 01:16:01;;;;;;;12.78;3.40;;;;;;;20.88;77.99;100242.48;1800243;78;27586;-54
2022/08/16 01:18:46;;;;;;;4.35;3.17;;;;;;;20.88;77.75;100239.74;1800068;79;25695;-54
2022/08/16 01:21:37;;;;;;;7.37;3.55;;;;;;;20.85;77.98;100233.33;1743254;79;25818;-55
2022/08/16 01:24:37;;;;;;;11.45;3.67;;;;;;;20.84;78.38;100235.78;1791529;79;25825;-50
2022/08/16 01:27:09;;;;;;;7.33;3.65;;;;;;;20.83;78.31;100236.84;1778091;80;26004;-55
2022/08/16 01:29:45;;;;;;;6.87;4.08;;;;;;;20.80;78.54;100229.89;1778652;80;28453;-55
2022/08/16 01:32:11;;;;;;;8.10;3.67;;;;;;;20.81;78.18;100232.11;1767134;79;25820;-54
2022/08/16 01:34:38;;;;;;;9.10;4.20;;;;;;;20.78;79.12;100224.33;1778138;80;25737;-54
2022/08/16 01:37:10;;;;;;;6.97;3.95;;;;;;;20.75;79.42;100222.05;1778487;80;26757;-55
2022/08/16 01:39:37;;;;;;;7.95;4.28;;;;;;;20.75;79.12;100219.32;1778441;80;25784;-53
2022/08/16 01:42:08;;;;;;;7.90;3.77;;;;;;;20.72;79.42;100220.53;1778170;79;27537;-55
2022/08/16 01:44:37;;;;;;;6.70;3.42;;;;;;;20.72;79.43;100206.05;1778252;80;25770;-55
2022/08/16 01:47:08;;;;;;;12.45;2.98;;;;;;;20.71;78.30;100198.90;1795064;78;25720;-55
2022/08/16 01:49:40;;;;;;;8.80;4.00;;;;;;;20.67;78.33;100200.38;1800153;78;25833;-55
2022/08/16 01:52:14;;;;;;;9.80;3.55;;;;;;;20.61;78.04;100191.18;1800442;78;25619;-55
2022/08/16 01:54:49;;;;;;;8.43;3.92;;;;;;;20.57;77.94;100196.23;1798982;78;27449;-55
2022/08/16 01:57:16;;;;;;;9.25;3.70;;;;;;;20.53;78.06;100197.72;1799990;79;25905;-55
2022/08/16 01:59:43;;;;;;;7.03;3.30;;;;;;;20.53;78.43;100198.25;1800318;78;25755;-55
2022/08/16 02:02:11;;;;;;;7.55;3.55;;;;;;;20.53;78.60;100200.45;1799881;78;25775;-54
2022/08/16 02:04:38;;;;;;;4.78;3.55;;;;;;;20.53;78.07;100207.28;1800380;79;25954;-54
2022/08/16 02:07:07;;;;;;;4.50;3.52;;;;;;;20.51;78.08;100211.28;1800311;79;27490;-56
2022/08/16 02:09:36;;;;;;;6.25;3.00;;;;;;;20.48;77.96;100216.66;1800146;79;25740;-54
2022/08/16 02:12:07;;;;;;;6.05;3.40;;;;;;;20.48;78.24;100222.95;1778225;79;25791;-55
2022/08/16 02:14:36;;;;;;;5.47;3.65;;;;;;;20.49;78.15;100219.17;1800188;78;25766;-54
2022/08/16 02:17:07;;;;;;;7.80;3.02;;;;;;;20.52;78.11;100221.98;1791435;77;25786;-55
2022/08/16 02:19:39;;;;;;;9.08;3.72;;;;;;;20.52;78.12;100225.27;1770700;79;28469;-56
2022/08/16 02:22:10;;;;;;;7.35;3.62;;;;;;;20.51;78.48;100220.31;1770307;80;26208;-56
2022/08/16 02:24:39;;;;;;;8.23;3.90;;;;;;;20.50;78.19;100224.09;1781979;79;25790;-55
2022/08/16 02:27:06;;;;;;;8.40;4.05;;;;;;;20.48;78.19;100211.20;1794530;79;25888;-55
2022/08/16 02:29:33;;;;;;;11.05;4.25;;;;;;;20.50;78.25;100219.99;1803653;79;26134;-55
2022/08/16 02:32:00;;;;;;;7.47;4.67;;;;;;;20.50;78.36;100225.45;1804669;79;27496;-55
2022/08/16 02:34:27;;;;;;;8.18;3.77;;;;;;;20.51;78.12;100223.58;1804550;79;26666;-55
2022/08/16 02:36:54;;;;;;;11.53;4.53;;;;;;;20.52;78.39;100216.53;1804560;79;25618;-55
2022/08/16 02:39:22;;;;;;;4.78;3.30;;;;;;;20.54;78.33;100212.20;1804694;79;26772;-54
2022/08/16 02:41:52;;;;;;;7.08;3.77;;;;;;;20.54;78.22;100206.73;1804830;79;26200;-55
2022/08/16 02:44:19;;;;;;;8.20;4.28;;;;;;;20.54;78.21;100208.95;1804673;79;27521;-55
2022/08/16 02:46:49;;;;;;;12.07;4.28;;;;;;;20.55;77.53;100215.25;1795336;77;26161;-55
2022/08/16 02:49:17;;;;;;;8.30;3.33;;;;;;;20.52;77.77;100206.96;1783975;79;25701;-55
2022/08/16 02:51:44;;;;;;;9.98;3.55;;;;;;;20.53;77.65;100209.19;1788707;78;26085;-54
2022/08/16 02:54:13;;;;;;;7.67;3.37;;;;;;;20.52;77.32;100209.69;1774082;80;25744;-55
2022/08/16 02:56:41;;;;;;;9.33;4.10;;;;;;;20.52;77.28;100212.97;1756274;81;27502;-55
2022/08/16 02:59:10;;;;;;;11.88;3.98;;;;;;;20.52;77.58;100208.88;1734419;81;25784;-54
2022/08/16 03:01:37;;;;;;;6.35;3.60;;;;;;;20.52;77.27;100209.69;1755979;81;25684;-55
2022/08/16 03:04:09;;;;;;;5.47;3.60;;;;;;;20.51;76.81;100209.38;1754134;81;25909;-55
2022/08/16 03:06:36;;;;;;;5.80;3.42;;;;;;;20.52;76.96;100202.04;1755993;81;25775;-56
2022/08/16 03:09:05;;;;;;;9.85;4.40;;;;;;;20.55;76.48;100209.78;1755942;80;27637;-55
2022/08/16 03:11:32;;;;;;;7.28;3.72;;;;;;;20.55;76.72;100209.27;1756431;81;25490;-55
2022/08/16 03:14:01;;;;;;;10.88;4.20;;;;;;;20.59;76.37;100215.14;1755910;81;25463;-55
2022/08/16 03:16:30;;;;;;;13.22;5.45;;;;;;;20.59;76.27;100214.59;1756142;81;25844;-55
2022/08/16 03:18:59;;;;;;;6.85;4.30;;;;;;;20.62;75.69;100220.16;1756005;81;25512;-53
2022/08/16 03:21:27;;;;;;;8.70;4.25;;;;;;;20.64;75.68;100216.17;1755749;81;27578;-55
2022/08/16 03:23:55;;;;;;;13.85;4.58;;;;;;;20.67;75.48;100219.50;1756633;81;25444;-55
2022/08/16 03:26:23;;;;;;;10.53;4.37;;;;;;;20.70;75.47;100218.58;1757737;81;25901;-55
2022/08/16 03:28:50;;;;;;;7.20;4.00;;;;;;;20.75;75.63;100219.32;1757752;81;25801;-55
2022/08/16 03:31:17;;;;;;;23.22;4.78;;;;;;;20.78;74.55;100214.77;1757697;81;25717;-54
2022/08/16 03:33:45;;;;;;;6.83;4.47;;;;;;;20.81;75.06;100211.61;1757612;81;27575;-54
2022/08/16 03:36:12;;;;;;;17.27;4.22;;;;;;;20.86;74.44;100201.39;1757610;81;25939;-54
2022/08/16 03:38:43;;;;;;;16.35;4.40;;;;;;;20.87;74.35;100210.72;1757813;80;25492;-55
2022/08/16 03:41:12;;;;;;;8.80;4.80;;;;;;;20.90;74.47;100201.24;1757484;81;26679;-55
2022/08/16 03:43:40;;;;;;;10.00;4.60;;;;;;;20.90;74.69;100198.51;1757783;80;25831;-55
2022/08/16 03:46:09;;;;;;;10.45;4.08;;;;;;;20.92;74.46;100205.46;1757570;81;27468;-53
2022/08/16 03:48:39;;;;;;;14.53;5.35;;;;;;;20.93;74.58;100198.08;1790013;79;25739;-55
2022/08/16 03:51:11;;;;;;;12.75;5.03;;;;;;;20.99;74.91;100200.47;1800858;79;25739;-55
2022/08/16 03:53:41;;;;;;;9.03;4.25;;;;;;;21.04;75.23;100204.74;1796519;79;25846;-55
2022/08/16 03:56:10;;;;;;;14.38;5.12;;;;;;;21.09;75.19;100208.50;1786431;80;25621;-55
2022/08/16 03:58:38;;;;;;;6.12;3.75;;;;;;;21.13;74.96;100203.42;1788962;80;27499;-53
2022/08/16 04:01:06;;;;;;;19.32;4.33;;;;;;;21.17;75.15;100201.94;1766408;80;25961;-54
2022/08/16 04:03:34;;;;;;;11.65;3.90;;;;;;;21.18;75.50;100213.19;1788592;79;25711;-54
2022/08/16 04:06:06;;;;;;;11.93;4.85;;;;;;;21.18;75.94;100222.77;1788752;80;25767;-55
2022/08/16 04:08:33;;;;;;;9.40;3.92;;;;;;;21.13;76.47;100226.67;1788748;80;25724;-55
2022/08/16 04:11:02;;;;;;;22.02;4.33;;;;;;;21.04;76.71;100224.73;1788786;79;27471;-54
2022/08/16 04:13:30;;;;;;;11.53;4.53;;;;;;;21.00;77.27;100233.59;1788890;80;25852;-53
2022/08/16 04:15:58;;;;;;;5.60;3.75;;;;;;;20.93;77.56;100238.55;1788810;78;25805;-54
2022/08/16 04:18:26;;;;;;;8.10;4.35;;;;;;;20.90;77.61;100240.88;1788661;79;25519;-54
2022/08/16 04:20:55;;;;;;;11.63;4.20;;;;;;;20.88;77.64;100249.31;1788787;80;27238;-54
2022/08/16 04:23:24;;;;;;;8.30;4.03;;;;;;;20.86;77.64;100248.69;1782974;78;28158;-54
2022/08/16 04:29:32;;;;;;;10.85;3.72;;;;;;;20.83;76.71;100242.81;1788731;77;25733;-54
2022/08/16 04:32:00;;;;;;;14.80;4.05;;;;;;;20.77;76.57;100253.58;1806328;79;25763;-54
2022/08/16 04:34:33;;;;;;;7.00;3.50;;;;;;;20.74;76.61;100248.53;1806218;79;25691;-54
2022/08/16 04:37:01;;;;;;;13.15;3.85;;;;;;;20.70;76.96;100250.00;1784044;79;28175;-54
2022/08/16 04:39:31;;;;;;;8.35;4.12;;;;;;;20.71;77.72;100263.13;1806384;79;25802;-54
2022/08/16 04:41:58;;;;;;;9.53;3.98;;;;;;;20.63;78.35;100268.29;1806222;79;25698;-55
2022/08/16 04:44:26;;;;;;;12.05;4.35;;;;;;;20.56;78.85;100260.65;1806484;79;25766;-54
2022/08/16 04:46:53;;;;;;;22.35;4.65;;;;;;;20.53;79.47;100255.09;1805008;79;25765;-53
2022/08/16 04:49:21;;;;;;;16.70;4.17;;;;;;;20.51;79.76;100255.83;1809835;79;27891;-55
2022/08/16 04:51:50;;;;;;;18.02;4.05;;;;;;;20.55;79.96;100254.87;1809836;79;25773;-54
2022/08/16 04:54:17;;;;;;;14.35;3.15;;;;;;;20.54;79.81;100244.48;1805222;79;25760;-53
2022/08/16 04:56:44;;;;;;;31.27;5.22;;;;;;;20.58;79.86;100240.78;1800070;79;25928;-51
2022/08/16 04:59:11;;;;;;;34.73;4.95;;;;;;;20.62;79.72;100242.02;1800514;79;25699;-54
2022/08/16 05:01:38;;;;;;;24.40;4.70;;;;;;;20.70;79.64;100247.27;1799907;79;27470;-54
2022/08/16 05:04:05;;;;;;;20.72;4.15;;;;;;;20.78;79.60;100239.36;1800203;78;26124;-54
2022/08/16 05:06:34;;;;;;;22.20;4.40;;;;;;;20.85;79.47;100253.84;1799591;78;25705;-54
2022/08/16 05:09:01;;;;;;;14.13;4.60;;;;;;;20.90;79.28;100243.11;1800266;79;26605;-55
2022/08/16 05:11:29;;;;;;;8.80;3.72;;;;;;;20.95;79.08;100246.55;1800145;79;25661;-54
2022/08/16 05:14:00;;;;;;;22.45;4.62;;;;;;;21.00;78.71;100245.91;1800347;78;28338;-54
2022/08/16 05:16:29;;;;;;;17.73;4.17;;;;;;;21.03;78.52;100244.08;1799782;78;25818;-52
2022/08/16 05:19:01;;;;;;;6.73;4.13;;;;;;;21.06;77.95;100235.45;1799370;79;25734;-55
2022/08/16 05:21:31;;;;;;;10.03;4.42;;;;;;;21.10;78.18;100240.26;1799786;79;25810;-51
2022/08/16 05:23:59;;;;;;;32.73;5.67;;;;;;;21.15;78.29;100242.88;1792366;79;26091;-53
2022/08/16 05:26:30;;;;;;;21.45;3.72;;;;;;;21.22;78.25;100240.94;1756264;79;27452;-53
2022/08/16 05:28:59;;;;;;;8.18;3.75;;;;;;;21.27;78.06;100235.64;1778047;80;26076;-55
2022/08/16 05:31:27;;;;;;;8.70;3.83;;;;;;;21.33;77.82;100228.45;1777614;80;25715;-55
2022/08/16 05:33:55;;;;;;;21.07;13.28;;;;;;;21.40;77.54;100225.12;1778344;79;25756;-55
2022/08/16 05:36:23;;;;;;;18.90;5.33;;;;;;;21.46;77.36;100220.67;1777922;80;25775;-55
2022/08/16 05:38:51;;;;;;;20.20;7.62;;;;;;;21.54;77.08;100219.88;1778043;79;27632;-59
2022/08/16 05:41:19;;;;;;;19.90;5.97;;;;;;;21.67;77.03;100218.97;1778130;80;26137;-53
2022/08/16 05:43:46;;;;;;;15.65;5.10;;;;;;;21.79;76.29;100224.55;1778045;80;25704;-55
2022/08/16 05:46:20;;;;;;;12.00;4.60;;;;;;;21.91;76.29;100217.80;1773567;79;25763;-56
2022/08/16 05:48:45;;;;;;;13.32;4.62;;;;;;;22.04;75.84;100224.53;1765593;80;26469;-55
2022/08/16 05:51:13;;;;;;;29.63;5.90;;;;;;;22.13;75.04;100222.33;1766795;79;27631;-55
2022/08/16 05:53:41;;;;;;;12.82;4.85;;;;;;;22.26;74.87;100216.41;1774498;78;25954;-56
2022/08/16 05:56:09;;;;;;;10.40;4.10;;;;;;;22.38;74.53;100217.31;1800349;79;25736;-55
2022/08/16 05:58:38;;;;;;;13.62;3.50;;;;;;;22.49;73.21;100212.48;1800200;78;25783;-55
2022/08/16 06:01:06;;;;;;;7.55;3.27;;;;;;;22.59;73.17;100219.33;1800313;78;25747;-55
2022/08/16 06:03:33;;;;;;;10.03;3.42;;;;;;;22.70;72.49;100225.42;1800309;78;27452;-53
2022/08/16 06:06:02;;;;;;;16.45;4.12;;;;;;;22.81;71.66;100226.02;1800469;78;26102;-55
2022/08/16 06:08:31;;;;;;;18.57;4.00;;;;;;;22.92;71.05;100229.02;1799913;78;25766;-54
2022/08/16 06:10:58;;;;;;;14.83;3.40;;;;;;;23.04;71.32;100237.33;1800650;78;25967;-55
2022/08/16 06:13:25;;;;;;;22.93;4.15;;;;;;;23.15;70.70;100242.00;1800258;78;25494;-54
2022/08/16 06:15:53;;;;;;;17.52;4.47;;;;;;;23.24;70.55;100243.38;1800208;78;28295;-55
2022/08/16 06:18:21;;;;;;;12.65;4.03;;;;;;;23.35;70.33;100232.16;1800053;79;25767;-55
2022/08/16 06:20:48;;;;;;;13.35;4.75;;;;;;;23.47;69.27;100240.94;1800094;78;25728;-54
2022/08/16 06:23:17;;;;;;;9.98;4.20;;;;;;;23.53;69.56;100241.39;1789118;77;25782;-55
2022/08/16 06:25:45;;;;;;;14.47;4.30;;;;;;;23.59;69.05;100241.81;1806058;79;25711;-55
2022/08/16 06:28:12;;;;;;;8.28;3.92;;;;;;;23.58;68.08;100239.59;1807193;79;28301;-55
2022/08/16 06:30:40;;;;;;;7.95;4.00;;;;;;;23.53;66.87;100239.47;1807540;79;25972;-55
2022/08/16 06:33:08;;;;;;;14.95;4.67;;;;;;;23.50;67.02;100242.67;1807356;79;25709;-55
2022/08/16 06:35:36;;;;;;;10.35;4.05;;;;;;;23.44;66.76;100237.58;1807616;79;25667;-55
2022/08/16 06:38:03;;;;;;;9.90;3.60;;;;;;;23.35;66.85;100238.17;1807311;79;26209;-55
2022/08/16 06:40:32;;;;;;;6.45;3.60;;;;;;;23.29;66.97;100236.67;1807494;79;27569;-55
2022/08/16 06:42:59;;;;;;;5.55;3.92;;;;;;;23.25;67.16;100234.08;1807520;79;25912;-55
2022/08/16 06:45:28;;;;;;;12.37;3.58;;;;;;;23.20;66.54;100235.84;1805301;78;25710;-55
2022/08/16 06:48:10;;;;;;;13.80;4.37;;;;;;;23.14;66.80;100241.18;1799780;79;25771;-55
2022/08/16 06:50:38;;;;;;;10.58;3.85;;;;;;;23.13;67.13;100239.50;1800000;79;25759;-55
2022/08/16 06:53:07;;;;;;;10.95;4.00;;;;;;;23.12;67.38;100231.52;1800075;79;27515;-55
2022/08/16 06:55:35;;;;;;;26.50;3.83;;;;;;;23.19;67.71;100235.02;1777974;79;25716;-53
2022/08/16 06:58:04;;;;;;;6.72;3.70;;;;;;;23.31;68.22;100239.17;1799767;79;25770;-55
2022/08/16 07:00:30;;;;;;;23.42;4.10;;;;;;;23.47;68.06;100231.33;1800075;79;25844;-55
2022/08/16 07:03:02;;;;;;;4.97;3.52;;;;;;;23.59;67.47;100230.83;1799811;79;25458;-55
2022/08/16 07:05:31;;;;;;;7.45;4.17;;;;;;;23.71;66.46;100237.70;1800029;78;27472;-55
2022/08/16 07:08:14;;;;;;;11.97;4.10;;;;;;;23.68;66.48;100239.02;1798974;78;25965;-52
2022/08/16 07:10:41;;;;;;;9.50;4.10;;;;;;;23.68;66.78;100236.28;1800343;78;25742;-55
2022/08/16 07:13:09;;;;;;;14.75;4.47;;;;;;;23.70;66.71;100230.02;1799865;78;26677;-55
2022/08/16 07:15:37;;;;;;;7.83;4.10;;;;;;;23.72;66.52;100228.40;1799995;79;25747;-55
2022/08/16 07:18:04;;;;;;;12.10;4.00;;;;;;;23.74;66.19;100233.13;1800216;78;27614;-55
2022/08/16 07:20:33;;;;;;;8.53;3.90;;;;;;;23.70;66.14;100234.66;1800261;78;25799;-55
2022/08/16 07:22:59;;;;;;;6.90;4.10;;;;;;;23.68;66.57;100234.05;1778011;78;25732;-54
2022/08/16 07:25:28;;;;;;;8.38;4.28;;;;;;;23.70;66.26;100242.89;1810948;79;26550;-54
2022/08/16 07:27:55;;;;;;;5.62;3.83;;;;;;;23.69;66.29;100248.09;1772832;80;27227;-55
2022/08/16 07:30:25;;;;;;;5.60;3.50;;;;;;;23.67;66.38;100254.34;1773050;80;28463;-54
2022/08/16 07:32:54;;;;;;;5.28;3.70;;;;;;;23.66;65.75;100245.28;1773383;80;25799;-55
2022/08/16 07:35:24;;;;;;;4.30;3.37;;;;;;;23.68;65.74;100248.63;1772940;80;36146;-55
2022/08/16 07:37:52;;;;;;;5.83;3.85;;;;;;;23.76;66.36;100248.80;1772830;80;26440;-54
2022/08/16 07:40:24;;;;;;;9.65;3.67;;;;;;;23.87;65.61;100248.54;1772339;80;25685;-54
2022/08/16 07:42:52;;;;;;;4.85;3.52;;;;;;;23.96;65.60;100248.52;1773325;79;27473;-55
2022/08/16 07:45:20;;;;;;;6.08;4.17;;;;;;;24.04;65.62;100249.53;1774009;79;25815;-55
2022/08/16 07:47:49;;;;;;;7.47;4.00;;;;;;;24.17;64.51;100248.45;1794443;78;26020;-54
2022/08/16 07:50:17;;;;;;;4.67;3.12;;;;;;;24.30;63.67;100249.27;1798827;78;25799;-55
2022/08/16 07:52:45;;;;;;;15.85;4.03;;;;;;;24.42;63.07;100263.02;1799464;79;25730;-55
2022/08/16 07:55:15;;;;;;;10.75;5.40;;;;;;;24.50;63.40;100257.97;1799553;79;28305;-55
2022/08/16 07:57:43;;;;;;;8.48;4.25;;;;;;;24.76;62.09;100272.85;1785761;79;25938;-54
2022/08/16 08:00:12;;;;;;;7.05;3.83;;;;;;;24.80;61.82;100276.77;1744314;82;25831;-55
2022/08/16 08:02:46;;;;;;;5.55;4.15;;;;;;;24.88;61.77;100270.06;1734079;82;25940;-54
2022/08/16 08:05:15;;;;;;;13.08;6.45;;;;;;;24.95;61.40;100274.36;1732606;82;25702;-55
2022/08/16 08:07:42;;;;;;;8.33;5.17;;;;;;;25.02;61.67;100265.94;1733618;82;27594;-54
2022/08/16 08:10:10;;;;;;;6.33;3.90;;;;;;;25.15;62.49;100271.69;1733507;82;25793;-55
2022/08/16 08:12:38;;;;;;;15.20;4.47;;;;;;;25.29;62.56;100271.70;1733687;82;25784;-54
2022/08/16 08:15:10;;;;;;;13.58;4.22;;;;;;;25.39;62.24;100275.73;1733606;82;25734;-55
2022/08/16 08:17:39;;;;;;;18.23;4.85;;;;;;;25.53;61.65;100279.86;1733909;82;25899;-55
2022/08/16 08:20:11;;;;;;;6.92;4.00;;;;;;;25.70;61.32;100280.42;1733387;82;28464;-55
2022/08/16 08:22:39;;;;;;;8.80;4.30;;;;;;;25.80;60.92;100277.84;1733279;82;25748;-55
2022/08/16 08:25:09;;;;;;;8.80;5.12;;;;;;;25.72;60.08;100288.75;1754386;81;25702;-55
2022/08/16 08:27:36;;;;;;;12.50;5.42;;;;;;;25.54;59.90;100285.67;1758599;81;25780;-55
2022/08/16 08:30:05;;;;;;;13.95;5.28;;;;;;;25.41;60.30;100280.48;1759042;81;25739;-54
2022/08/16 08:32:33;;;;;;;16.02;4.97;;;;;;;25.40;60.16;100284.31;1750893;80;27301;-54
2022/08/16 08:35:03;;;;;;;9.98;4.83;;;;;;;25.25;60.25;100287.58;1749911;81;25759;-55
2022/08/16 08:37:35;;;;;;;9.00;5.33;;;;;;;25.09;60.90;100291.94;1750710;80;25700;-56
2022/08/16 08:40:09;;;;;;;23.27;6.35;;;;;;;24.96;60.81;100302.17;1725260;80;25946;-55
2022/08/16 08:42:37;;;;;;;11.95;5.97;;;;;;;24.75;61.35;100323.44;1723354;82;25740;-55
2022/08/16 08:45:05;;;;;;;20.82;7.67;;;;;;;24.27;61.87;100338.54;1724855;81;27523;-55
2022/08/16 08:47:33;;;;;;;35.45;10.38;;;;;;;23.91;62.85;100320.62;1729604;82;25777;-55
2022/08/16 08:50:00;;;;;;;31.57;9.05;;;;;;;23.78;68.08;100310.38;1729934;82;26322;-53
2022/08/16 08:52:29;;;;;;;11.90;5.40;;;;;;;23.55;70.74;100321.58;1729674;82;25809;-53
2022/08/16 08:54:57;;;;;;;13.45;6.08;;;;;;;23.28;71.17;100309.09;1729888;82;25931;-55
2022/08/16 08:57:25;;;;;;;19.42;6.62;;;;;;;23.03;71.34;100309.71;1729713;82;27469;-54
2022/08/16 08:59:54;;;;;;;12.20;5.10;;;;;;;22.85;71.93;100303.69;1699259;82;25907;-54
2022/08/16 09:02:21;;;;;;;11.60;5.03;;;;;;;22.58;72.13;100299.88;1729789;82;25724;-53
2022/08/16 09:04:49;;;;;;;8.10;4.70;;;;;;;22.46;73.19;100291.03;1728136;82;25973;-54
2022/08/16 09:07:20;;;;;;;13.00;5.15;;;;;;;22.45;75.00;100297.61;1730010;82;25728;-55
2022/08/16 09:09:48;;;;;;;9.40;4.50;;;;;;;22.42;75.18;100291.72;1729673;82;27484;-53
2022/08/16 09:12:17;;;;;;;6.03;4.17;;;;;;;22.42;75.61;100299.94;1729922;82;25801;-54
2022/08/16 09:14:49;;;;;;;9.20;4.70;;;;;;;22.42;75.66;100306.27;1728008;82;25800;-55
2022/08/16 09:17:16;;;;;;;13.48;5.67;;;;;;;22.41;75.65;100304.59;1730003;82;25480;-54
2022/08/16 09:19:44;;;;;;;10.80;5.00;;;;;;;22.38;75.23;100301.44;1729693;82;25752;-53
2022/08/16 09:22:11;;;;;;;7.85;4.17;;;;;;;22.32;75.48;100293.59;1729886;81;27464;-55
2022/08/16 09:24:38;;;;;;;12.28;5.90;;;;;;;22.28;75.59;100305.53;1733350;82;25823;-55
2022/08/16 09:27:05;;;;;;;13.25;5.90;;;;;;;22.22;75.79;100300.96;1736716;82;25852;-54
2022/08/16 09:29:33;;;;;;;9.88;5.85;;;;;;;22.27;76.22;100301.66;1736077;82;25809;-54
2022/08/16 09:32:01;;;;;;;13.38;5.97;;;;;;;22.30;76.75;100303.92;1736614;82;25720;-55
2022/08/16 09:34:28;;;;;;;14.35;5.47;;;;;;;22.35;77.23;100299.45;1736534;82;28324;-53
2022/08/16 09:36:56;;;;;;;12.45;5.45;;;;;;;22.49;79.28;100297.44;1736566;82;25766;-55
2022/08/16 09:39:26;;;;;;;10.70;4.42;;;;;;;22.58;79.91;100300.73;1736451;82;25709;-55
2022/08/16 09:41:57;;;;;;;17.15;9.15;;;;;;;22.66;80.22;100303.69;1736472;82;25784;-55
2022/08/16 09:44:26;;;;;;;14.13;6.65;;;;;;;22.66;79.68;100306.44;1736357;82;25982;-54
2022/08/16 09:46:55;;;;;;;8.85;5.70;;;;;;;22.78;79.75;100308.73;1738206;82;27437;-55
2022/08/16 09:49:23;;;;;;;9.28;4.75;;;;;;;22.85;79.47;100306.44;1735006;82;25665;-55
2022/08/16 09:51:53;;;;;;;9.18;4.70;;;;;;;22.95;79.51;100308.11;1729448;82;25800;-55
2022/08/16 09:54:26;;;;;;;6.62;4.10;;;;;;;23.07;79.27;100296.67;1729102;82;25981;-55
2022/08/16 09:56:53;;;;;;;;;;;;;;;23.20;78.89;100287.46;1731908;82;25650;-53
2022/08/16 09:59:23;;;;;;;7.97;3.90;;;;;;;23.33;77.81;100288.33;1796887;79;27481;-54
2022/08/16 10:01:51;;;;;;;3.70;3.02;;;;;;;23.44;77.87;100288.36;1799310;79;25680;-54
2022/08/16 10:04:21;;;;;;;5.20;3.30;;;;;;;23.59;76.83;100281.63;1799892;79;25781;-54
2022/08/16 10:06:48;;;;;;;8.55;3.60;;;;;;;23.68;76.57;100276.61;1799427;79;25774;-55
2022/08/16 10:09:15;;;;;;;7.00;3.65;;;;;;;23.93;76.76;100283.29;1799656;79;25915;-54
2022/08/16 10:14:29;;;;;;;3.85;2.90;;;;;;;24.19;75.95;100292.17;1799627;79;25760;-54
2022/08/16 10:17:00;;;;;;;5.90;3.30;;;;;;;24.38;75.35;100295.11;1799801;79;25743;-54
2022/08/16 10:19:28;;;;;;;5.67;2.87;;;;;;;24.50;74.59;100289.59;1799826;79;26703;-55
2022/08/16 10:21:56;;;;;;;6.85;3.08;;;;;;;24.80;74.97;100291.90;1799716;79;25714;-55
2022/08/16 10:24:23;;;;;;;6.55;3.17;;;;;;;25.14;74.36;100287.94;1809363;78;28253;-55
2022/08/16 10:26:51;;;;;;;6.47;3.37;;;;;;;25.53;73.68;100281.23;1817401;78;25583;-55
2022/08/16 10:29:19;;;;;;;8.13;3.33;;;;;;;25.98;70.79;100281.43;1817427;78;25590;-54
2022/08/16 10:31:46;;;;;;;3.50;3.00;;;;;;;26.26;68.86;100286.05;1810551;77;25954;-55
2022/08/16 10:34:14;;;;;;;6.40;3.37;;;;;;;26.49;66.70;100297.39;1778801;80;25915;-55
2022/08/16 10:36:40;;;;;;;6.55;3.42;;;;;;;26.44;65.87;100306.16;1778735;80;27304;-54
2022/08/16 10:39:07;;;;;;;8.98;3.80;;;;;;;26.25;65.12;100311.95;1778546;79;25947;-55
2022/08/16 10:41:34;;;;;;;9.18;4.40;;;;;;;26.02;66.01;100319.81;1778574;80;25503;-55
2022/08/16 10:44:03;;;;;;;4.90;3.35;;;;;;;26.02;67.26;100325.33;1778640;80;26582;-55
2022/08/16 10:46:30;;;;;;;7.47;3.55;;;;;;;26.06;67.71;100326.48;1789932;78;25695;-55
2022/08/16 10:48:57;;;;;;;5.03;3.37;;;;;;;26.17;67.03;100324.22;1799437;79;27683;-55
2022/08/16 10:51:25;;;;;;;9.98;3.55;;;;;;;26.21;66.68;100319.89;1799800;79;25726;-53
2022/08/16 10:53:52;;;;;;;4.97;3.50;;;;;;;26.55;66.28;100323.12;1810677;79;25818;-54
2022/08/16 10:56:19;;;;;;;11.12;4.28;;;;;;;27.40;66.12;100326.97;1772979;80;25770;-55
2022/08/16 10:58:46;;;;;;;5.70;3.37;;;;;;;28.40;65.08;100322.92;1772698;80;26505;-54
2022/08/16 11:01:14;;;;;;;5.53;3.67;;;;;;;28.67;61.43;100330.27;1811719;79;27527;-55
2022/08/16 11:03:41;;;;;;;6.35;3.42;;;;;;;28.83;60.92;100324.30;1772853;79;26141;-55
2022/08/16 11:06:08;;;;;;;5.90;3.55;;;;;;;28.96;56.42;100328.51;1811611;78;25758;-54
2022/08/16 11:08:37;;;;;;;6.25;3.22;;;;;;;28.98;56.56;100328.23;1772738;80;25957;-55
2022/08/16 11:11:07;;;;;;;4.53;3.25;;;;;;;29.24;56.53;100331.94;1772987;80;25749;-56
2022/08/16 11:13:35;;;;;;;9.28;3.37;;;;;;;29.40;56.62;100331.47;1811441;79;27160;-54
2022/08/16 11:16:04;;;;;;;4.78;2.90;;;;;;;30.19;55.47;100327.67;1773033;80;25762;-55
2022/08/16 11:18:32;;;;;;;4.05;3.10;;;;;;;30.20;53.54;100318.23;1811284;79;26342;-56
2022/08/16 11:20:59;;;;;;;5.92;3.45;;;;;;;30.60;52.58;100306.25;1772977;80;25907;-55
2022/08/16 11:23:27;;;;;;;5.40;2.80;;;;;;;31.69;52.14;100297.41;1811879;79;25770;-56
2022/08/16 11:25:55;;;;;;;5.85;2.95;;;;;;;32.62;47.71;100296.52;1811988;77;28462;-56
2022/08/16 11:28:23;;;;;;;3.15;2.58;;;;;;;33.28;49.62;100292.63;1811314;78;25500;-55
2022/08/16 11:30:51;;;;;;;9.75;3.22;;;;;;;34.04;46.49;100302.06;1812046;78;25728;-56
2022/08/16 11:33:18;;;;;;;6.00;3.42;;;;;;;34.67;45.73;100310.97;1811617;77;25900;-55
2022/08/16 11:35:45;;;;;;;5.40;2.95;;;;;;;35.24;43.52;100303.62;1812296;78;25632;-55